Time;durP1;ratioP1;P1;durP2;ratioP2;P2;SDS_P1;SDS_P2;PMS_P1;PMS_P2;Temp;Humidity;BMP_temperature;BMP_pressure;BME280_temperature;BME280_humidity;BME280_pressure;Samples;Min_cycle;Max_cycle;Signal;HPM_P1;HPM_P2
2022/07/29 00:01:19;;;;;;;16.27;12.50;;;;;;;21.38;100.00;97468.06;5013444;28;20057;-80
2022/07/29 00:03:45;;;;;;;17.90;13.25;;;;;;;21.36;100.00;97473.66;5021523;28;20048;-80
2022/07/29 00:06:11;;;;;;;19.27;14.27;;;;;;;21.34;100.00;97477.56;5030168;28;20025;-82
2022/07/29 00:08:36;;;;;;;17.40;14.00;;;;;;;21.29;100.00;97471.72;5040813;28;20100;-80
2022/07/29 00:11:02;;;;;;;17.48;13.60;;;;;;;21.26;100.00;97480.22;5035118;28;20052;-80
2022/07/29 00:13:27;;;;;;;19.25;13.73;;;;;;;21.16;100.00;97468.63;5025793;28;20036;-80
2022/07/29 00:15:53;;;;;;;17.58;13.02;;;;;;;21.07;100.00;97454.09;5024034;28;20083;-80
2022/07/29 00:18:18;;;;;;;18.83;12.90;;;;;;;21.06;100.00;97463.28;5029410;28;20494;-80
2022/07/29 00:20:44;;;;;;;21.23;14.90;;;;;;;21.07;100.00;97465.00;5044340;28;20476;-80
2022/07/29 00:23:09;;;;;;;19.23;13.88;;;;;;;20.90;100.00;97469.47;5026011;28;20496;-79
2022/07/29 00:25:35;;;;;;;22.40;14.43;;;;;;;20.82;100.00;97469.44;5035016;28;20021;-79
2022/07/29 00:28:01;;;;;;;21.52;15.13;;;;;;;20.78;100.00;97470.75;5041946;28;20400;-80
2022/07/29 00:30:26;;;;;;;19.90;12.90;;;;;;;20.86;100.00;97468.06;5047487;28;20475;-80
2022/07/29 00:32:52;;;;;;;20.30;12.63;;;;;;;20.81;100.00;97454.13;5040778;28;20025;-80
2022/07/29 00:38:02;;;;;;;17.05;13.43;;;;;;;20.84;100.00;97474.69;5046444;28;20499;-80
2022/07/29 00:40:28;;;;;;;21.58;13.43;;;;;;;20.78;100.00;97483.50;5048710;28;20032;-80
2022/07/29 00:42:53;;;;;;;19.60;13.57;;;;;;;20.75;100.00;97475.66;5017365;28;20038;-81
2022/07/29 00:45:19;;;;;;;22.48;13.80;;;;;;;20.78;100.00;97478.06;5043730;28;20028;-80
2022/07/29 00:47:45;;;;;;;26.77;14.95;;;;;;;20.77;100.00;97484.50;5042106;28;20024;-80
2022/07/29 00:50:12;;;;;;;22.25;14.80;;;;;;;20.75;100.00;97487.38;5032055;28;20037;-80
2022/07/29 00:52:39;;;;;;;20.15;13.43;;;;;;;20.76;100.00;97505.41;5044536;28;20026;-80
2022/07/29 00:55:07;;;;;;;18.95;14.50;;;;;;;20.72;100.00;97503.16;5045781;28;20085;-80
2022/07/29 00:57:33;;;;;;;20.13;14.38;;;;;;;20.70;100.00;97510.63;5038665;28;20108;-80
2022/07/29 00:59:58;;;;;;;21.15;15.25;;;;;;;20.67;100.00;97511.81;5031871;28;20028;-79
2022/07/29 01:02:24;;;;;;;21.95;15.32;;;;;;;20.68;100.00;97508.06;5012945;28;20078;-79
2022/07/29 01:04:50;;;;;;;21.13;14.63;;;;;;;20.68;100.00;97515.34;5043296;28;20108;-81
2022/07/29 01:07:17;;;;;;;21.73;14.65;;;;;;;20.65;100.00;97502.94;5038325;28;20060;-81
2022/07/29 01:09:43;;;;;;;20.23;13.88;;;;;;;20.66;100.00;97501.94;5028569;28;20037;-81
2022/07/29 01:12:09;;;;;;;18.90;13.90;;;;;;;20.64;100.00;97501.22;5028199;28;20037;-80
2022/07/29 01:14:35;;;;;;;17.38;13.27;;;;;;;20.46;100.00;97509.41;5030962;28;20113;-80
2022/07/29 01:17:26;;;;;;;18.98;13.15;;;;;;;20.46;100.00;97514.00;5033584;28;20044;-80
2022/07/29 01:20:00;;;;;;;15.95;12.10;;;;;;;20.46;100.00;97512.13;5004236;28;20072;-80
2022/07/29 01:22:33;;;;;;;16.63;13.10;;;;;;;20.31;100.00;97510.13;5030583;28;20044;-80
2022/07/29 01:25:42;;;;;;;22.25;13.18;;;;;;;20.31;100.00;97504.69;5039684;28;20108;-80
2022/07/29 01:28:17;;;;;;;17.95;13.52;;;;;;;20.29;100.00;97510.31;5032508;28;20055;-80
2022/07/29 01:30:44;;;;;;;19.70;13.65;;;;;;;20.24;100.00;97506.31;5033004;28;20093;-80
2022/07/29 01:33:48;;;;;;;18.42;12.75;;;;;;;20.23;100.00;97513.59;5031607;28;20051;-80
2022/07/29 01:36:01;;;;;;;29.08;14.05;;;;;;;20.28;100.00;97516.72;5046800;28;20396;-80
2022/07/29 01:38:28;;;;;;;19.15;13.15;;;;;;;20.35;100.00;97511.53;5045284;28;20029;-80
2022/07/29 01:41:05;;;;;;;16.83;13.80;;;;;;;20.33;100.00;97506.25;5022310;28;20555;-80
2022/07/29 01:44:02;;;;;;;20.33;12.98;;;;;;;20.36;100.00;97500.53;5027643;28;20047;-80
2022/07/29 01:46:34;;;;;;;17.25;12.98;;;;;;;20.25;100.00;97503.44;5032045;28;20058;-80
2022/07/29 01:49:06;;;;;;;16.65;12.80;;;;;;;20.32;100.00;97501.84;5047568;28;20021;-80
2022/07/29 01:51:43;;;;;;;;;;;;;;;20.35;100.00;97497.94;5034211;28;20555;-80
2022/07/29 01:54:25;;;;;;;14.00;10.50;;;;;;;20.27;100.00;97498.72;5027773;28;19917;-80
2022/07/29 01:56:52;;;;;;;20.53;10.97;;;;;;;20.14;100.00;97491.94;5028330;28;20033;-80
2022/07/29 01:59:18;;;;;;;12.93;10.52;;;;;;;19.97;100.00;97491.78;5036169;28;20328;-80
2022/07/29 02:01:45;;;;;;;15.05;11.18;;;;;;;20.05;100.00;97493.75;5047198;28;20041;-80
2022/07/29 02:04:11;;;;;;;17.00;12.18;;;;;;;20.08;100.00;97509.72;5047433;28;20409;-80
2022/07/29 02:06:38;;;;;;;20.52;12.27;;;;;;;19.95;100.00;97491.09;5044232;28;20025;-80
2022/07/29 02:09:04;;;;;;;16.27;12.25;;;;;;;20.03;100.00;97490.31;5028213;28;20033;-80
2022/07/29 02:11:31;;;;;;;15.77;11.52;;;;;;;19.98;100.00;97495.38;5020965;28;20081;-80
2022/07/29 02:13:57;;;;;;;14.18;10.82;;;;;;;20.00;100.00;97490.63;5030577;28;20033;-80
2022/07/29 02:16:23;;;;;;;20.40;13.05;;;;;;;19.96;100.00;97487.34;5030574;28;20036;-80
2022/07/29 02:18:53;;;;;;;18.23;12.98;;;;;;;19.98;100.00;97498.94;5033589;28;20488;-80
2022/07/29 02:21:23;;;;;;;22.58;13.98;;;;;;;19.90;100.00;97501.56;5045040;28;20040;-81
2022/07/29 02:23:50;;;;;;;21.23;13.85;;;;;;;19.85;100.00;97495.75;5047399;28;20496;-80
2022/07/29 02:26:17;;;;;;;19.92;13.45;;;;;;;19.86;100.00;97494.75;5022150;28;20037;-80
2022/07/29 02:28:42;;;;;;;17.52;12.80;;;;;;;19.90;100.00;97504.25;5017998;28;20041;-80
2022/07/29 02:31:09;;;;;;;16.20;12.63;;;;;;;19.86;100.00;97502.88;5026938;28;20045;-80
2022/07/29 02:33:35;;;;;;;15.63;12.18;;;;;;;19.83;100.00;97500.47;5034881;28;20033;-80
2022/07/29 02:36:01;;;;;;;18.08;12.88;;;;;;;19.84;100.00;97504.06;5038346;28;20032;-80
2022/07/29 02:41:26;;;;;;;16.55;12.07;;;;;;;19.74;100.00;97490.53;5026738;28;20083;-81
2022/07/29 02:43:58;;;;;;;17.90;12.45;;;;;;;19.52;100.00;97469.25;5038129;28;20035;-81
2022/07/29 02:46:35;;;;;;;18.50;13.43;;;;;;;19.67;100.00;97494.88;5043880;28;20033;-81
2022/07/29 02:49:13;;;;;;;17.33;11.65;;;;;;;19.64;100.00;97500.59;5046669;28;20079;-79
2022/07/29 02:51:49;;;;;;;17.98;11.82;;;;;;;19.66;100.00;97492.28;5038151;28;20030;-78
2022/07/29 02:54:42;;;;;;;17.50;11.85;;;;;;;19.72;100.00;97502.56;5032910;28;20489;-77
2022/07/29 02:57:22;;;;;;;16.48;10.57;;;;;;;19.74;100.00;97498.69;5012136;28;20041;-80
2022/07/29 02:59:51;;;;;;;15.68;11.32;;;;;;;19.80;100.00;97516.22;5043384;28;20037;-79
2022/07/29 03:02:17;;;;;;;15.43;11.27;;;;;;;19.86;100.00;97505.59;5026391;28;20069;-78
2022/07/29 03:04:43;;;;;;;20.85;12.55;;;;;;;19.89;100.00;97499.88;5032158;28;20563;-80
2022/07/29 03:07:11;;;;;;;16.67;12.35;;;;;;;19.97;100.00;97510.78;5041948;28;20056;-80
2022/07/29 03:09:37;;;;;;;21.67;13.95;;;;;;;19.93;100.00;97490.38;5046292;28;20552;-80
2022/07/29 03:12:06;;;;;;;15.93;12.13;;;;;;;19.93;100.00;97486.84;5021584;28;20479;-82
2022/07/29 03:14:31;;;;;;;20.15;12.18;;;;;;;20.06;100.00;97503.59;5029703;28;20029;-79
2022/07/29 03:16:58;;;;;;;17.02;11.80;;;;;;;20.13;100.00;97499.25;5010912;28;20090;-80
2022/07/29 03:19:24;;;;;;;13.35;11.40;;;;;;;20.16;100.00;97506.22;5013427;28;20036;-80
2022/07/29 03:21:49;;;;;;;22.58;15.48;;;;;;;20.20;100.00;97507.63;5028651;28;20061;-81
2022/07/29 03:24:32;;;;;;;19.17;14.43;;;;;;;20.29;100.00;97510.31;5010000;28;20536;-81
2022/07/29 03:26:58;;;;;;;24.67;13.23;;;;;;;20.23;100.00;97497.31;5011920;28;20032;-81
2022/07/29 03:29:24;;;;;;;18.65;12.32;;;;;;;20.31;100.00;97502.84;5038053;28;20115;-81
2022/07/29 03:31:50;;;;;;;22.58;13.18;;;;;;;20.27;100.00;97498.72;5028886;28;20081;-81
2022/07/29 03:34:16;;;;;;;28.88;13.80;;;;;;;20.33;100.00;97508.94;5039206;28;20033;-81
2022/07/29 03:36:41;;;;;;;17.42;12.73;;;;;;;20.23;100.00;97499.16;5013524;28;20446;-81
2022/07/29 03:39:08;;;;;;;20.88;12.93;;;;;;;20.34;100.00;97498.94;5015232;28;20036;-81
2022/07/29 03:41:35;;;;;;;20.63;12.32;;;;;;;20.34;100.00;97505.25;5026031;28;20029;-82
2022/07/29 03:44:01;;;;;;;20.35;11.80;;;;;;;20.29;100.00;97495.84;5040372;28;20045;-80
2022/07/29 03:46:28;;;;;;;15.38;11.15;;;;;;;20.31;100.00;97499.25;5027230;28;20057;-80
2022/07/29 03:48:58;;;;;;;21.85;13.27;;;;;;;20.29;100.00;97506.72;5016955;28;20101;-80
2022/07/29 03:51:24;;;;;;;22.52;12.73;;;;;;;20.27;100.00;97485.13;5049508;28;20054;-80
2022/07/29 03:53:50;;;;;;;22.58;12.90;;;;;;;20.31;100.00;97499.25;5032209;28;20108;-81
2022/07/29 03:56:16;;;;;;;13.90;9.82;;;;;;;20.30;100.00;97503.00;5027658;28;20108;-80
2022/07/29 03:58:44;;;;;;;18.42;10.85;;;;;;;20.34;100.00;97498.94;5022557;28;20021;-81
2022/07/29 04:01:10;;;;;;;18.83;10.82;;;;;;;20.38;100.00;97508.50;5031879;28;21050;-81
2022/07/29 04:03:35;;;;;;;16.15;10.98;;;;;;;20.40;100.00;97511.91;5049277;28;20071;-81
2022/07/29 04:06:05;;;;;;;20.80;11.05;;;;;;;20.46;100.00;97519.44;5029915;28;20061;-81
2022/07/29 04:08:32;;;;;;;18.52;10.48;;;;;;;20.45;100.00;97513.16;5046516;28;20025;-81
2022/07/29 04:10:58;;;;;;;16.98;10.55;;;;;;;20.41;100.00;97505.47;5045562;28;20097;-81
2022/07/29 04:13:23;;;;;;;17.55;11.52;;;;;;;20.39;100.00;97502.06;5029331;28;20112;-80
2022/07/29 04:15:49;;;;;;;15.07;10.82;;;;;;;20.37;100.00;97515.78;5018365;28;20473;-81
2022/07/29 04:18:14;;;;;;;16.20;10.05;;;;;;;20.40;100.00;97512.75;5040453;28;20025;-82
2022/07/29 04:20:40;;;;;;;17.63;10.93;;;;;;;20.46;100.00;97511.28;5021782;28;20033;-80
2022/07/29 04:23:05;;;;;;;15.07;10.48;;;;;;;20.58;100.00;97506.47;5028179;28;20022;-80
2022/07/29 04:25:31;;;;;;;14.48;10.63;;;;;;;20.68;100.00;97520.78;5037092;28;20028;-81
2022/07/29 04:28:02;;;;;;;14.25;9.68;;;;;;;20.64;100.00;97505.84;5029278;28;20036;-81
2022/07/29 04:30:29;;;;;;;14.85;9.68;;;;;;;20.72;100.00;97506.75;5042175;28;20021;-81
2022/07/29 04:32:55;;;;;;;13.60;9.40;;;;;;;20.74;100.00;97512.00;5046306;28;20021;-81
2022/07/29 04:35:21;;;;;;;13.77;10.45;;;;;;;20.79;100.00;97507.81;5048870;28;20503;-81
2022/07/29 04:37:46;;;;;;;14.13;10.55;;;;;;;20.79;100.00;97517.84;5031252;28;20025;-78
2022/07/29 04:40:12;;;;;;;15.98;10.80;;;;;;;20.78;100.00;97524.28;5038884;28;20032;-80
2022/07/29 04:42:38;;;;;;;16.88;11.00;;;;;;;20.83;100.00;97509.19;5026900;28;20028;-81
2022/07/29 04:45:04;;;;;;;16.90;11.82;;;;;;;20.96;100.00;97522.38;5030689;28;20033;-80
2022/07/29 04:47:30;;;;;;;17.48;11.57;;;;;;;20.99;100.00;97531.06;5036368;28;20018;-80
2022/07/29 04:49:56;;;;;;;15.48;11.98;;;;;;;21.05;100.00;97526.84;5027281;28;20036;-80
2022/07/29 04:52:22;;;;;;;23.35;11.40;;;;;;;21.13;100.00;97529.66;5028486;28;20029;-80
2022/07/29 04:54:48;;;;;;;17.38;11.10;;;;;;;21.17;100.00;97530.16;5034726;28;20123;-80
2022/07/29 04:57:13;;;;;;;14.98;10.35;;;;;;;21.21;100.00;97526.97;5044083;28;20057;-82
2022/07/29 04:59:39;;;;;;;13.77;10.35;;;;;;;21.27;100.00;97539.94;5012148;28;20033;-81
2022/07/29 05:02:04;;;;;;;18.83;13.07;;;;;;;21.33;100.00;97524.81;5037841;28;20129;-82
2022/07/29 05:04:30;;;;;;;21.35;13.32;;;;;;;21.44;100.00;97530.00;5012228;28;20029;-81
2022/07/29 05:06:55;;;;;;;22.48;13.90;;;;;;;21.46;100.00;97519.78;5028273;28;20025;-82
2022/07/29 05:09:21;;;;;;;24.52;14.25;;;;;;;21.55;100.00;97519.66;5040808;28;20029;-81
2022/07/29 05:11:46;;;;;;;19.67;13.15;;;;;;;21.58;100.00;97519.34;5038720;28;20029;-81
2022/07/29 05:14:12;;;;;;;20.98;12.75;;;;;;;21.59;100.00;97525.63;5014138;28;20037;-81
2022/07/29 05:16:39;;;;;;;23.58;14.10;;;;;;;21.44;100.00;97530.81;5026205;28;20029;-81
2022/07/29 05:19:05;;;;;;;23.38;13.95;;;;;;;21.31;100.00;97526.88;5041436;28;20432;-80
2022/07/29 05:21:31;;;;;;;30.33;15.55;;;;;;;21.40;100.00;97529.47;5035180;28;20120;-82
2022/07/29 05:23:56;;;;;;;19.80;14.15;;;;;;;21.49;100.00;97530.34;5044702;28;20548;-80
2022/07/29 05:26:22;;;;;;;30.05;17.70;;;;;;;21.38;100.00;97530.66;5022019;28;20029;-83
2022/07/29 05:28:47;;;;;;;31.55;18.33;;;;;;;21.44;100.00;97535.44;5048390;28;20017;-79
2022/07/29 05:31:14;;;;;;;55.88;37.58;;;;;;;21.61;100.00;97539.94;5047099;28;20028;-80
2022/07/29 05:33:40;;;;;;;27.77;16.13;;;;;;;21.63;100.00;97532.44;5031630;28;20028;-79
2022/07/29 05:36:06;;;;;;;28.60;15.43;;;;;;;21.63;100.00;97532.44;5046615;28;20469;-79
2022/07/29 05:38:33;;;;;;;27.75;16.05;;;;;;;21.67;100.00;97542.00;5022611;28;20491;-79
2022/07/29 05:41:02;;;;;;;26.92;15.93;;;;;;;21.77;100.00;97550.91;5017421;28;20112;-79
2022/07/29 05:43:29;;;;;;;22.98;15.65;;;;;;;22.24;100.00;97559.38;5029552;28;20396;-79
2022/07/29 05:45:54;;;;;;;26.15;17.42;;;;;;;22.87;100.00;97556.06;5027775;28;20474;-79
2022/07/29 05:48:20;;;;;;;21.33;14.15;;;;;;;22.60;100.00;97568.16;5038379;28;20107;-81
2022/07/29 05:50:46;;;;;;;21.80;14.35;;;;;;;22.46;100.00;97566.94;5047474;28;20476;-80
2022/07/29 05:53:11;;;;;;;23.67;15.13;;;;;;;22.55;100.00;97567.78;5029690;28;20030;-81
2022/07/29 05:55:37;;;;;;;18.98;14.25;;;;;;;22.60;100.00;97568.16;5040747;28;20066;-79
2022/07/29 05:58:02;;;;;;;21.38;14.20;;;;;;;22.75;100.00;97579.25;5039481;28;20032;-80
2022/07/29 06:00:28;;;;;;;26.23;13.93;;;;;;;22.91;100.00;97569.22;5020849;28;20170;-79
2022/07/29 06:02:53;;;;;;;26.35;14.65;;;;;;;23.05;98.71;97573.09;5025381;28;20034;-81
2022/07/29 06:05:19;;;;;;;21.63;13.77;;;;;;;23.40;96.41;97571.91;5025691;28;20068;-79
2022/07/29 06:07:45;;;;;;;25.20;13.45;;;;;;;23.62;94.51;97579.34;5023630;28;20035;-78
2022/07/29 06:10:11;;;;;;;15.82;12.20;;;;;;;23.66;92.48;97562.41;5046703;28;20049;-79
2022/07/29 06:12:36;;;;;;;17.83;11.80;;;;;;;23.79;90.92;97567.31;5026039;28;20146;-79
2022/07/29 06:15:02;;;;;;;22.55;11.90;;;;;;;23.93;88.65;97573.94;5011317;28;20102;-79
2022/07/29 06:17:28;;;;;;;18.05;12.38;;;;;;;24.21;87.19;97586.97;5028322;28;20411;-79
2022/07/29 06:19:53;;;;;;;29.70;16.25;;;;;;;24.07;88.01;97578.66;5010788;28;20026;-79
2022/07/29 06:22:19;;;;;;;25.55;12.93;;;;;;;24.38;85.86;97581.41;5036550;28;20029;-79
2022/07/29 06:24:44;;;;;;;26.90;15.30;;;;;;;24.56;84.27;97580.09;5047264;28;20412;-78
2022/07/29 06:27:13;;;;;;;31.42;18.67;;;;;;;24.80;82.99;97579.91;5047186;28;20066;-79
2022/07/29 06:29:39;;;;;;;20.67;12.55;;;;;;;24.92;82.53;97591.31;5045570;28;20112;-78
2022/07/29 06:32:05;;;;;;;16.67;11.73;;;;;;;24.87;82.88;97580.06;5034344;28;20052;-78
2022/07/29 06:34:30;;;;;;;54.13;31.83;;;;;;;25.22;81.77;97582.16;5035183;28;20515;-81
2022/07/29 06:36:56;;;;;;;14.88;11.45;;;;;;;26.50;74.85;97577.22;5041619;28;20072;-79
2022/07/29 06:39:22;;;;;;;17.25;10.95;;;;;;;28.56;66.22;97575.63;5022750;28;20479;-80
2022/07/29 06:41:49;;;;;;;21.35;11.70;;;;;;;30.51;58.45;97555.59;5019052;28;20066;-80
2022/07/29 06:44:33;;;;;;;34.88;24.52;;;;;;;32.12;52.94;97554.72;5042400;28;20032;-80
2022/07/29 06:47:00;;;;;;;14.55;9.68;;;;;;;33.46;47.84;97543.25;5009654;28;20025;-79
2022/07/29 06:49:34;;;;;;;15.10;9.30;;;;;;;34.72;44.53;97535.03;5022010;28;20121;-79
2022/07/29 06:52:00;;;;;;;17.50;9.10;;;;;;;35.67;42.13;97524.81;5017509;28;20021;-80
2022/07/29 06:54:25;;;;;;;13.55;8.93;;;;;;;35.53;41.77;97529.00;5010332;28;20105;-80
2022/07/29 06:56:51;;;;;;;16.58;9.70;;;;;;;35.18;42.27;97531.19;5043298;28;20052;-79
2022/07/29 06:59:16;;;;;;;13.48;10.05;;;;;;;35.36;41.51;97526.22;5025175;28;20035;-78
2022/07/29 07:01:43;;;;;;;44.72;26.80;;;;;;;35.52;40.97;97529.25;5011440;28;20050;-80
2022/07/29 07:04:09;;;;;;;14.63;10.40;;;;;;;35.71;40.44;97537.13;5027102;28;20480;-80
2022/07/29 07:06:35;;;;;;;32.20;21.02;;;;;;;36.50;38.89;97523.75;5019652;28;20021;-80
2022/07/29 07:09:01;;;;;;;17.27;9.35;;;;;;;37.23;37.50;97523.19;5036264;28;20029;-79
2022/07/29 07:11:27;;;;;;;19.67;11.00;;;;;;;37.93;36.58;97516.53;5042443;28;20069;-79
2022/07/29 07:13:52;;;;;;;22.67;9.45;;;;;;;37.76;36.23;97504.63;5038221;28;20025;-79
2022/07/29 07:16:18;;;;;;;11.77;8.90;;;;;;;38.15;35.43;97510.78;5029588;28;20170;-79
2022/07/29 07:18:44;;;;;;;13.82;9.30;;;;;;;37.80;36.13;97506.63;5030176;28;20040;-79
2022/07/29 07:21:11;;;;;;;16.23;10.65;;;;;;;38.01;35.65;97512.38;5027066;28;20408;-80
2022/07/29 07:23:36;;;;;;;17.35;15.55;;;;;;;38.25;34.67;97513.63;5039757;28;20468;-79
2022/07/29 07:26:02;;;;;;;10.45;7.40;;;;;;;35.48;38.15;97511.38;5033193;28;20028;-79
2022/07/29 07:28:28;;;;;;;10.10;8.13;;;;;;;34.27;41.02;97529.38;5049917;28;20456;-80
2022/07/29 07:30:54;;;;;;;14.00;7.78;;;;;;;33.47;42.10;97523.56;5016355;28;20109;-80
2022/07/29 07:33:20;;;;;;;10.77;8.60;;;;;;;33.59;42.53;97527.25;5024986;28;20415;-79
2022/07/29 07:35:46;;;;;;;9.80;7.43;;;;;;;32.99;42.94;97531.19;5024857;28;20032;-79
2022/07/29 07:38:11;;;;;;;11.80;8.20;;;;;;;33.02;43.50;97526.00;5025099;28;20042;-79
2022/07/29 07:40:37;;;;;;;10.30;7.28;;;;;;;33.18;42.96;97530.06;5016793;28;20086;-79
2022/07/29 07:43:39;;;;;;;8.68;7.45;;;;;;;35.28;39.20;97514.69;5041682;28;20033;-81
2022/07/29 07:46:04;;;;;;;9.93;6.80;;;;;;;36.31;37.43;97514.88;5030923;28;20041;-78
2022/07/29 07:48:30;;;;;;;8.95;7.45;;;;;;;35.10;39.10;97512.13;5036909;28;20025;-78
2022/07/29 07:50:55;;;;;;;9.07;7.65;;;;;;;36.87;36.67;97510.81;5014045;28;20040;-78
2022/07/29 07:53:21;;;;;;;10.45;7.93;;;;;;;38.40;34.53;97499.72;5013250;28;20049;-78
2022/07/29 07:55:47;;;;;;;11.25;7.80;;;;;;;37.64;35.08;97496.47;5012616;28;20112;-79
2022/07/29 07:58:21;;;;;;;7.72;6.50;;;;;;;37.76;34.82;97485.09;5034249;28;20025;-81
2022/07/29 08:00:47;;;;;;;9.85;7.20;;;;;;;38.96;33.00;97484.81;5032739;28;20053;-78
2022/07/29 08:03:13;;;;;;;11.75;7.45;;;;;;;37.00;35.50;97490.06;5049318;28;20029;-79
2022/07/29 08:05:40;;;;;;;8.27;7.35;;;;;;;36.35;36.49;97492.91;5049877;28;20456;-78
2022/07/29 08:08:06;;;;;;;10.57;7.38;;;;;;;37.49;35.14;97492.72;5024455;28;20468;-79
2022/07/29 08:13:16;;;;;;;8.90;7.32;;;;;;;36.41;36.23;97478.75;5049657;28;20081;-79
2022/07/29 08:15:42;;;;;;;7.68;6.80;;;;;;;36.34;36.48;97491.19;5032710;28;20025;-79
2022/07/29 08:18:08;;;;;;;11.23;7.55;;;;;;;36.50;36.68;97490.28;5024451;28;20028;-78
2022/07/29 08:20:35;;;;;;;14.60;8.25;;;;;;;37.16;35.85;97491.03;5018254;28;20036;-79
2022/07/29 08:23:02;;;;;;;13.50;8.63;;;;;;;38.30;34.18;97482.91;5022661;28;20507;-79
2022/07/29 08:25:27;;;;;;;9.40;7.13;;;;;;;38.00;34.27;97472.41;5032617;28;20108;-78
2022/07/29 08:27:53;;;;;;;8.98;7.38;;;;;;;38.59;33.68;97467.34;5039963;28;20116;-80
2022/07/29 08:30:19;;;;;;;16.63;6.90;;;;;;;38.37;33.67;97458.34;5032690;28;20088;-80
2022/07/29 08:32:44;;;;;;;14.45;7.68;;;;;;;39.75;31.85;97466.66;5024942;28;20052;-79
2022/07/29 08:35:10;;;;;;;10.63;7.68;;;;;;;38.37;33.31;97455.53;5023743;28;20035;-79
2022/07/29 08:37:35;;;;;;;14.80;6.80;;;;;;;38.72;33.05;97460.41;5032194;28;20120;-80
2022/07/29 08:40:01;;;;;;;12.48;7.47;;;;;;;39.08;32.71;97455.72;5024189;28;20056;-80
2022/07/29 08:42:27;;;;;;;10.20;7.07;;;;;;;38.82;33.08;97446.47;5027494;28;20495;-79
2022/07/29 08:44:53;;;;;;;9.85;7.47;;;;;;;38.66;33.48;97447.53;5029182;28;20040;-79
2022/07/29 08:47:19;;;;;;;11.52;7.65;;;;;;;39.54;32.25;97437.78;5028479;28;20404;-80
2022/07/29 08:49:46;;;;;;;8.35;7.20;;;;;;;39.06;33.46;97452.34;5037263;28;20029;-79
2022/07/29 08:52:12;;;;;;;8.60;6.80;;;;;;;40.01;31.55;97449.47;5039509;28;20033;-80
2022/07/29 08:54:43;;;;;;;7.72;6.93;;;;;;;39.76;31.72;97445.91;5040514;28;20061;-79
2022/07/29 08:57:09;;;;;;;;;;;;;;;39.67;31.20;97442.84;5032189;28;20025;-79
2022/07/29 08:59:35;;;;;;;11.80;6.53;;;;;;;38.73;32.38;97437.72;5043006;28;20284;-80
2022/07/29 09:02:01;;;;;;;16.02;13.35;;;;;;;39.10;32.08;97431.09;5029046;28;20041;-80
2022/07/29 09:04:31;;;;;;;8.70;7.25;;;;;;;39.48;32.42;97430.50;5040154;28;20029;-79
2022/07/29 09:06:58;;;;;;;10.15;6.38;;;;;;;40.40;30.45;97432.78;5048172;28;20021;-79
2022/07/29 09:09:24;;;;;;;7.25;6.55;;;;;;;38.56;31.97;97430.69;5028703;28;20025;-79
2022/07/29 09:11:50;;;;;;;9.27;6.75;;;;;;;38.22;33.10;97435.88;5028588;28;20030;-79
2022/07/29 09:14:15;;;;;;;8.52;6.80;;;;;;;38.64;32.75;97428.19;5011846;28;20033;-80
2022/07/29 09:16:48;;;;;;;8.98;7.25;;;;;;;38.81;31.91;97427.97;5029681;28;20025;-79
2022/07/29 09:19:31;;;;;;;6.70;6.05;;;;;;;40.92;29.46;97417.31;5027884;28;20033;-79
2022/07/29 09:21:58;;;;;;;10.10;5.88;;;;;;;42.53;27.78;97421.31;5028713;28;20545;-79
2022/07/29 09:24:36;;;;;;;11.55;7.05;;;;;;;41.82;28.37;97424.16;5015346;28;20412;-79
2022/07/29 09:27:02;;;;;;;9.10;6.38;;;;;;;40.93;29.49;97421.81;5014761;28;20125;-80
2022/07/29 09:29:28;;;;;;;6.80;6.10;;;;;;;39.94;30.42;97406.88;5040599;28;20060;-78
2022/07/29 09:31:54;;;;;;;10.15;6.78;;;;;;;40.82;29.61;97421.06;5048658;28;20029;-79
2022/07/29 09:34:28;;;;;;;8.75;6.25;;;;;;;40.59;30.40;97418.97;5028864;28;20086;-79
2022/07/29 09:36:54;;;;;;;15.68;7.35;;;;;;;40.96;30.13;97422.09;5019098;28;20052;-79
2022/07/29 09:39:34;;;;;;;11.68;6.75;;;;;;;40.40;30.58;97406.69;5020576;28;20030;-79
2022/07/29 09:42:05;;;;;;;13.35;7.88;;;;;;;42.08;28.67;97405.84;5018474;28;20025;-79
2022/07/29 09:44:48;;;;;;;8.52;7.45;;;;;;;41.86;28.48;97399.94;5036687;28;20404;-80
2022/07/29 09:47:14;;;;;;;11.75;6.47;;;;;;;40.97;29.45;97403.28;5027757;28;20029;-80
2022/07/29 09:49:59;;;;;;;9.10;6.70;;;;;;;39.23;31.80;97402.53;5028529;28;20071;-80
2022/07/29 09:52:28;;;;;;;8.00;7.10;;;;;;;40.08;31.00;97407.97;5011084;28;20459;-79
2022/07/29 09:55:07;;;;;;;11.75;6.93;;;;;;;40.41;30.11;97399.97;5053091;28;20025;-80
2022/07/29 09:57:32;;;;;;;14.00;7.50;;;;;;;40.48;30.17;97389.28;5028312;28;20455;-79
2022/07/29 10:00:06;;;;;;;7.70;7.00;;;;;;;40.37;30.29;97396.91;5035198;28;20061;-80
2022/07/29 10:02:33;;;;;;;9.98;6.43;;;;;;;41.84;28.57;97387.31;5044506;28;20094;-80
2022/07/29 10:05:01;;;;;;;10.85;7.18;;;;;;;41.26;29.48;97378.88;5026316;28;20028;-81
2022/07/29 10:07:50;;;;;;;13.30;7.32;;;;;;;41.10;29.68;97378.16;5027924;28;20739;-79
2022/07/29 10:10:39;;;;;;;7.95;6.63;;;;;;;42.84;27.37;97371.03;5036310;28;20028;-80
2022/07/29 10:13:07;;;;;;;12.05;7.53;;;;;;;43.62;26.84;97368.28;5019487;28;20511;-80
2022/07/29 10:15:38;;;;;;;12.43;7.60;;;;;;;43.47;26.36;97370.56;5022664;28;20028;-79
2022/07/29 10:18:04;;;;;;;;;;;;;;;41.62;28.59;97362.53;5016925;28;20120;-79
2022/07/29 10:20:29;;;;;;;13.77;10.20;;;;;;;42.48;27.63;97356.66;5027886;28;19968;-80
2022/07/29 10:22:55;;;;;;;9.98;7.53;;;;;;;42.29;28.00;97355.81;5042338;28;20052;-80
2022/07/29 10:25:21;;;;;;;9.32;7.60;;;;;;;41.03;29.22;97343.16;5039697;28;20514;-80
2022/07/29 10:27:48;;;;;;;7.88;7.05;;;;;;;40.80;29.32;97352.28;5048044;28;20508;-79
2022/07/29 10:30:15;;;;;;;17.00;8.27;;;;;;;41.55;29.22;97351.63;5030970;28;20036;-79
2022/07/29 10:33:22;;;;;;;10.48;7.43;;;;;;;41.24;29.48;97355.03;5030784;28;20021;-80
2022/07/29 10:36:30;;;;;;;8.40;6.72;;;;;;;41.86;28.42;97340.06;5034555;28;20033;-80
2022/07/29 10:39:32;;;;;;;9.25;7.00;;;;;;;43.32;27.11;97345.47;5032650;28;20048;-80
2022/07/29 10:42:20;;;;;;;21.73;7.30;;;;;;;42.73;27.09;97334.91;5022902;28;20026;-80
2022/07/29 10:44:46;;;;;;;8.88;6.45;;;;;;;44.28;25.45;97329.41;5023118;28;20053;-80
2022/07/29 10:47:25;;;;;;;10.35;6.50;;;;;;;45.06;25.29;97324.16;5030308;28;20075;-81
2022/07/29 10:49:59;;;;;;;7.65;6.90;;;;;;;44.04;26.16;97324.84;5041279;27;20029;-80
2022/07/29 10:52:27;;;;;;;8.13;6.53;;;;;;;44.09;25.82;97321.06;5029546;28;20030;-80
2022/07/29 10:54:53;;;;;;;8.50;6.80;;;;;;;44.10;25.68;97306.66;5030753;28;20025;-80
2022/07/29 10:57:21;;;;;;;12.98;6.85;;;;;;;45.78;24.29;97309.75;5038979;28;20043;-80
2022/07/29 10:59:49;;;;;;;8.95;6.78;;;;;;;46.08;23.60;97297.56;5028451;28;20453;-81
2022/07/29 11:02:33;;;;;;;12.95;8.88;;;;;;;45.07;24.53;97297.56;5042973;28;20049;-81
2022/07/29 11:05:05;;;;;;;7.97;6.57;;;;;;;44.47;25.40;97299.88;5020878;28;20049;-80
2022/07/29 11:07:36;;;;;;;9.88;6.78;;;;;;;43.37;26.94;97291.84;5043300;28;20097;-80
2022/07/29 11:10:16;;;;;;;7.70;6.38;;;;;;;44.00;25.97;97301.22;5033482;28;20024;-79
2022/07/29 11:12:42;;;;;;;12.20;6.90;;;;;;;43.39;26.24;97289.53;5030196;28;20101;-79
2022/07/29 11:15:08;;;;;;;9.15;6.63;;;;;;;44.74;25.06;97284.84;5039669;28;20033;-80
2022/07/29 11:18:02;;;;;;;12.68;6.68;;;;;;;44.63;24.79;97291.91;5030415;28;20115;-81
2022/07/29 11:20:39;;;;;;;8.77;6.18;;;;;;;44.20;25.10;97274.59;5032300;28;20017;-82
2022/07/29 11:23:26;;;;;;;6.68;6.00;;;;;;;43.16;26.03;97274.47;5046470;28;20017;-80
2022/07/29 11:26:11;;;;;;;7.70;6.70;;;;;;;44.08;25.72;97285.56;5026755;28;20109;-80
2022/07/29 11:28:59;;;;;;;8.00;6.45;;;;;;;44.80;24.75;97275.09;5044430;28;20064;-80
2022/07/29 11:31:32;;;;;;;12.38;6.75;;;;;;;42.13;26.94;97273.59;5047304;28;20029;-84
2022/07/29 11:34:15;;;;;;;7.55;6.10;;;;;;;41.03;28.53;97259.75;5016152;28;20061;-84
2022/07/29 11:37:06;;;;;;;8.65;6.40;;;;;;;42.02;27.26;97266.44;5041893;28;20044;-84